sensor_id;sensor_type;location;lat;lon;timestamp;pressure;altitude;pressure_sealevel;temperature;humidity
47670;BME280;33408;52.062;11.722;2023-05-24T00:00:43;101577.22;;;9.25;100.00
47670;BME280;33408;52.062;11.722;2023-05-24T00:03:10;101581.53;;;9.20;100.00
47670;BME280;33408;52.062;11.722;2023-05-24T00:05:39;101578.06;;;9.25;100.00
47670;BME280;33408;52.062;11.722;2023-05-24T00:08:07;101572.03;;;9.23;100.00
47670;BME280;33408;52.062;11.722;2023-05-24T00:10:34;101575.50;;;9.18;100.00
47670;BME280;33408;52.062;11.722;2023-05-24T00:13:00;101575.47;;;9.25;100.00
47670;BME280;33408;52.062;11.722;2023-05-24T00:15:27;101573.75;;;9.17;100.00
47670;BME280;33408;52.062;11.722;2023-05-24T00:17:53;101573.78;;;9.21;100.00
47670;BME280;33408;52.062;11.722;2023-05-24T00:20:20;101569.44;;;9.09;100.00
47670;BME280;33408;52.062;11.722;2023-05-24T00:22:46;101567.72;;;9.02;100.00
47670;BME280;33408;52.062;11.722;2023-05-24T00:25:15;101571.16;;;9.10;100.00
47670;BME280;33408;52.062;11.722;2023-05-24T00:27:41;101569.44;;;9.02;100.00
47670;BME280;33408;52.062;11.722;2023-05-24T00:30:08;101569.41;;;8.91;100.00
47670;BME280;33408;52.062;11.722;2023-05-24T00:32:35;101573.75;;;8.92;100.00
47670;BME280;33408;52.062;11.722;2023-05-24T00:35:01;101571.13;;;8.97;100.00
47670;BME280;33408;52.062;11.722;2023-05-24T00:37:28;101572.84;;;8.91;100.00
47670;BME280;33408;52.062;11.722;2023-05-24T00:39:55;101579.75;;;8.89;100.00
47670;BME280;33408;52.062;11.722;2023-05-24T00:42:23;101581.47;;;8.86;100.00
47670;BME280;33408;52.062;11.722;2023-05-24T00:44:49;101576.28;;;8.81;100.00
47670;BME280;33408;52.062;11.722;2023-05-24T00:47:16;101576.31;;;8.98;100.00
47670;BME280;33408;52.062;11.722;2023-05-24T00:49:43;101578.06;;;9.04;100.00
47670;BME280;33408;52.062;11.722;2023-05-24T00:52:10;101576.31;;;8.95;100.00
47670;BME280;33408;52.062;11.722;2023-05-24T00:54:37;101578.03;;;8.90;100.00
47670;BME280;33408;52.062;11.722;2023-05-24T00:57:05;101575.47;;;8.99;100.00
47670;BME280;33408;52.062;11.722;2023-05-24T00:59:33;101578.03;;;8.91;100.00
47670;BME280;33408;52.062;11.722;2023-05-24T01:02:00;101577.19;;;8.92;100.00
47670;BME280;33408;52.062;11.722;2023-05-24T01:04:26;101570.25;;;8.85;100.00
47670;BME280;33408;52.062;11.722;2023-05-24T01:07:02;101569.41;;;8.91;100.00
47670;BME280;33408;52.062;11.722;2023-05-24T01:09:34;101572.00;;;8.86;100.00
47670;BME280;33408;52.062;11.722;2023-05-24T01:12:14;101574.59;;;8.96;100.00
47670;BME280;33408;52.062;11.722;2023-05-24T01:14:55;101568.56;;;9.09;100.00
47670;BME280;33408;52.062;11.722;2023-05-24T01:17:28;101570.31;;;9.13;100.00
47670;BME280;33408;52.062;11.722;2023-05-24T01:19:59;101575.47;;;9.05;100.00
47670;BME280;33408;52.062;11.722;2023-05-24T01:23:13;101572.91;;;9.11;100.00
47670;BME280;33408;52.062;11.722;2023-05-24T01:25:47;101575.47;;;9.08;100.00
47670;BME280;33408;52.062;11.722;2023-05-24T01:28:17;101562.56;;;9.08;100.00
47670;BME280;33408;52.062;11.722;2023-05-24T01:30:44;101565.97;;;8.97;100.00
47670;BME280;33408;52.062;11.722;2023-05-24T01:33:10;101568.56;;;8.92;100.00
47670;BME280;33408;52.062;11.722;2023-05-24T01:35:37;101572.88;;;8.99;100.00
47670;BME280;33408;52.062;11.722;2023-05-24T01:38:12;101574.59;;;9.11;100.00
47670;BME280;33408;52.062;11.722;2023-05-24T01:40:40;101576.31;;;9.03;100.00
47670;BME280;33408;52.062;11.722;2023-05-24T01:43:13;101572.03;;;9.05;100.00
47670;BME280;33408;52.062;11.722;2023-05-24T01:45:48;101575.47;;;8.99;100.00
47670;BME280;33408;52.062;11.722;2023-05-24T01:48:23;101583.22;;;8.94;100.00
47670;BME280;33408;52.062;11.722;2023-05-24T01:50:56;101580.66;;;9.04;100.00
47670;BME280;33408;52.062;11.722;2023-05-24T01:53:25;101578.03;;;8.93;100.00
47670;BME280;33408;52.062;11.722;2023-05-24T01:55:54;101576.31;;;8.95;100.00
47670;BME280;33408;52.062;11.722;2023-05-24T01:58:22;101575.44;;;8.93;100.00
47670;BME280;33408;52.062;11.722;2023-05-24T02:00:52;101576.31;;;8.92;100.00
47670;BME280;33408;52.062;11.722;2023-05-24T02:03:20;101578.91;;;8.93;100.00
47670;BME280;33408;52.062;11.722;2023-05-24T02:05:47;101582.34;;;8.94;100.00
47670;BME280;33408;52.062;11.722;2023-05-24T02:08:13;101578.88;;;8.95;100.00
47670;BME280;33408;52.062;11.722;2023-05-24T02:10:40;101576.28;;;8.80;100.00
47670;BME280;33408;52.062;11.722;2023-05-24T02:13:07;101576.25;;;8.69;100.00
47670;BME280;33408;52.062;11.722;2023-05-24T02:15:34;101571.97;;;8.66;100.00
47670;BME280;33408;52.062;11.722;2023-05-24T02:18:03;101575.38;;;8.65;100.00
47670;BME280;33408;52.062;11.722;2023-05-24T02:20:32;101577.97;;;8.67;100.00
47670;BME280;33408;52.062;11.722;2023-05-24T02:23:01;101577.97;;;8.68;100.00
47670;BME280;33408;52.062;11.722;2023-05-24T02:25:28;101573.66;;;8.66;100.00
47670;BME280;33408;52.062;11.722;2023-05-24T02:27:55;101568.53;;;8.78;100.00
47670;BME280;33408;52.062;11.722;2023-05-24T02:30:22;101577.13;;;8.74;100.00
47670;BME280;33408;52.062;11.722;2023-05-24T02:32:49;101562.50;;;8.76;100.00
47670;BME280;33408;52.062;11.722;2023-05-24T02:35:17;101567.59;;;8.59;100.00
47670;BME280;33408;52.062;11.722;2023-05-24T02:37:43;101565.03;;;8.61;100.00
47670;BME280;33408;52.062;11.722;2023-05-24T02:40:11;101559.91;;;8.74;100.00
47670;BME280;33408;52.062;11.722;2023-05-24T02:42:37;101564.19;;;8.75;100.00
47670;BME280;33408;52.062;11.722;2023-05-24T02:45:05;101569.34;;;8.72;100.00
47670;BME280;33408;52.062;11.722;2023-05-24T02:47:32;101571.09;;;8.76;100.00
47670;BME280;33408;52.062;11.722;2023-05-24T02:49:58;101571.13;;;8.86;100.00
47670;BME280;33408;52.062;11.722;2023-05-24T02:52:26;101569.34;;;8.60;100.00
47670;BME280;33408;52.062;11.722;2023-05-24T02:54:53;101569.38;;;8.65;100.00
47670;BME280;33408;52.062;11.722;2023-05-24T02:57:19;101573.69;;;8.72;100.00
47670;BME280;33408;52.062;11.722;2023-05-24T02:59:47;101575.44;;;8.78;100.00
47670;BME280;33408;52.062;11.722;2023-05-24T03:02:13;101568.47;;;8.55;100.00
47670;BME280;33408;52.062;11.722;2023-05-24T03:04:40;101579.72;;;8.79;100.00
47670;BME280;33408;52.062;11.722;2023-05-24T03:07:06;101584.84;;;8.57;100.00
47670;BME280;33408;52.062;11.722;2023-05-24T03:09:34;101577.13;;;8.65;100.00
47670;BME280;33408;52.062;11.722;2023-05-24T03:12:01;101578.84;;;8.69;100.00
47670;BME280;33408;52.062;11.722;2023-05-24T03:14:27;101584.00;;;8.69;100.00
47670;BME280;33408;52.062;11.722;2023-05-24T03:16:54;101581.41;;;8.69;100.00
47670;BME280;33408;52.062;11.722;2023-05-24T03:19:20;101577.97;;;8.68;100.00
47670;BME280;33408;52.062;11.722;2023-05-24T03:21:47;101580.59;;;8.71;100.00
47670;BME280;33408;52.062;11.722;2023-05-24T03:24:14;101577.91;;;8.50;100.00
47670;BME280;33408;52.062;11.722;2023-05-24T03:26:41;101570.13;;;8.47;100.00
47670;BME280;33408;52.062;11.722;2023-05-24T03:29:08;101577.94;;;8.56;100.00
47670;BME280;33408;52.062;11.722;2023-05-24T03:31:35;101574.38;;;8.37;100.00
47670;BME280;33408;52.062;11.722;2023-05-24T03:34:01;101568.44;;;8.46;100.00
47670;BME280;33408;52.062;11.722;2023-05-24T03:36:28;101571.91;;;8.55;100.00
47670;BME280;33408;52.062;11.722;2023-05-24T03:38:55;101579.66;;;8.52;100.00
47670;BME280;33408;52.062;11.722;2023-05-24T03:41:22;101580.56;;;8.65;100.00
47670;BME280;33408;52.062;11.722;2023-05-24T03:43:50;101575.34;;;8.56;100.00
47670;BME280;33408;52.062;11.722;2023-05-24T03:46:17;101577.03;;;8.45;100.00
47670;BME280;33408;52.062;11.722;2023-05-24T03:48:43;101575.34;;;8.54;100.00
47670;BME280;33408;52.062;11.722;2023-05-24T03:51:10;101583.97;;;8.60;100.00
47670;BME280;33408;52.062;11.722;2023-05-24T03:53:36;101588.34;;;8.73;100.00
47670;BME280;33408;52.062;11.722;2023-05-24T03:56:03;101584.03;;;8.75;100.00
47670;BME280;33408;52.062;11.722;2023-05-24T03:58:30;101578.88;;;8.78;100.00
47670;BME280;33408;52.062;11.722;2023-05-24T04:00:58;101584.88;;;8.75;100.00
47670;BME280;33408;52.062;11.722;2023-05-24T04:03:25;101584.06;;;8.81;100.00
47670;BME280;33408;52.062;11.722;2023-05-24T04:05:52;101580.59;;;8.74;100.00
47670;BME280;33408;52.062;11.722;2023-05-24T04:08:19;101584.03;;;8.75;100.00
47670;BME280;33408;52.062;11.722;2023-05-24T04:10:45;101590.91;;;8.70;100.00
47670;BME280;33408;52.062;11.722;2023-05-24T04:13:12;101583.97;;;8.63;100.00
47670;BME280;33408;52.062;11.722;2023-05-24T04:15:38;101588.28;;;8.61;100.00
47670;BME280;33408;52.062;11.722;2023-05-24T04:18:07;101585.78;;;8.76;100.00
47670;BME280;33408;52.062;11.722;2023-05-24T04:20:34;101590.94;;;8.74;100.00
47670;BME280;33408;52.062;11.722;2023-05-24T04:23:00;101588.34;;;8.84;100.00
47670;BME280;33408;52.062;11.722;2023-05-24T04:25:28;101587.47;;;8.75;100.00
47670;BME280;33408;52.062;11.722;2023-05-24T04:27:54;101583.19;;;8.79;100.00
47670;BME280;33408;52.062;11.722;2023-05-24T04:30:21;101583.13;;;8.62;100.00
47670;BME280;33408;52.062;11.722;2023-05-24T04:32:48;101587.47;;;8.77;100.00
47670;BME280;33408;52.062;11.722;2023-05-24T04:35:17;101586.63;;;8.78;100.00
47670;BME280;33408;52.062;11.722;2023-05-24T04:37:44;101593.50;;;8.84;100.00
47670;BME280;33408;52.062;11.722;2023-05-24T04:40:12;101595.28;;;8.94;100.00
47670;BME280;33408;52.062;11.722;2023-05-24T04:42:40;101587.50;;;8.82;100.00
47670;BME280;33408;52.062;11.722;2023-05-24T04:45:07;101596.97;;;8.83;100.00
47670;BME280;33408;52.062;11.722;2023-05-24T04:47:34;101591.81;;;8.95;100.00
47670;BME280;33408;52.062;11.722;2023-05-24T04:50:01;101584.91;;;8.82;100.00
47670;BME280;33408;52.062;11.722;2023-05-24T04:52:29;101596.06;;;8.65;100.00
47670;BME280;33408;52.062;11.722;2023-05-24T04:54:57;101605.59;;;8.88;100.00
47670;BME280;33408;52.062;11.722;2023-05-24T04:57:24;101605.66;;;9.03;100.00
47670;BME280;33408;52.062;11.722;2023-05-24T04:59:50;101603.91;;;9.01;100.00
47670;BME280;33408;52.062;11.722;2023-05-24T05:02:17;101603.91;;;8.99;100.00
47670;BME280;33408;52.062;11.722;2023-05-24T05:04:43;101603.94;;;9.13;100.00
47670;BME280;33408;52.062;11.722;2023-05-24T05:07:10;101602.16;;;8.95;100.00
47670;BME280;33408;52.062;11.722;2023-05-24T05:09:38;101606.53;;;9.08;100.00
47670;BME280;33408;52.062;11.722;2023-05-24T05:12:05;101610.81;;;8.96;100.00
47670;BME280;33408;52.062;11.722;2023-05-24T05:14:32;101617.75;;;9.18;100.00
47670;BME280;33408;52.062;11.722;2023-05-24T05:16:58;101615.97;;;8.97;100.00
47670;BME280;33408;52.062;11.722;2023-05-24T05:19:25;101614.25;;;8.94;100.00
47670;BME280;33408;52.062;11.722;2023-05-24T05:21:51;101614.31;;;9.15;100.00
47670;BME280;33408;52.062;11.722;2023-05-24T05:24:18;101619.47;;;9.10;100.00
47670;BME280;33408;52.062;11.722;2023-05-24T05:26:46;101624.66;;;9.18;100.00
47670;BME280;33408;52.062;11.722;2023-05-24T05:29:13;101623.81;;;9.33;100.00
47670;BME280;33408;52.062;11.722;2023-05-24T05:31:40;101631.56;;;9.34;100.00
47670;BME280;33408;52.062;11.722;2023-05-24T05:34:06;101625.53;;;9.24;100.00
47670;BME280;33408;52.062;11.722;2023-05-24T05:36:34;101620.34;;;9.24;100.00
47670;BME280;33408;52.062;11.722;2023-05-24T05:39:04;101623.81;;;9.34;100.00
47670;BME280;33408;52.062;11.722;2023-05-24T05:41:31;101616.91;;;9.47;100.00
47670;BME280;33408;52.062;11.722;2023-05-24T05:43:59;101623.81;;;9.59;100.00
47670;BME280;33408;52.062;11.722;2023-05-24T05:46:26;101620.34;;;9.49;100.00
47670;BME280;33408;52.062;11.722;2023-05-24T05:48:52;101624.66;;;9.42;100.00
47670;BME280;33408;52.062;11.722;2023-05-24T05:51:19;101621.22;;;9.53;100.00
47670;BME280;33408;52.062;11.722;2023-05-24T05:53:46;101629.84;;;9.58;100.00
47670;BME280;33408;52.062;11.722;2023-05-24T05:56:12;101630.69;;;9.34;100.00
47670;BME280;33408;52.062;11.722;2023-05-24T05:58:39;101626.41;;;9.77;100.00
47670;BME280;33408;52.062;11.722;2023-05-24T06:01:07;101629.84;;;9.73;100.00
47670;BME280;33408;52.062;11.722;2023-05-24T06:03:33;101623.78;;;9.90;100.00
47670;BME280;33408;52.062;11.722;2023-05-24T06:06:00;101623.78;;;10.07;100.00
47670;BME280;33408;52.062;11.722;2023-05-24T06:08:26;101627.19;;;10.15;100.00
47670;BME280;33408;52.062;11.722;2023-05-24T06:10:59;101626.31;;;10.20;100.00
47670;BME280;33408;52.062;11.722;2023-05-24T06:13:25;101635.88;;;9.89;100.00
47670;BME280;33408;52.062;11.722;2023-05-24T06:15:52;101638.47;;;10.00;100.00
47670;BME280;33408;52.062;11.722;2023-05-24T06:18:20;101641.91;;;10.13;100.00
47670;BME280;33408;52.062;11.722;2023-05-24T06:20:47;101645.34;;;9.95;100.00
47670;BME280;33408;52.062;11.722;2023-05-24T06:23:13;101647.09;;;9.96;100.00
47670;BME280;33408;52.062;11.722;2023-05-24T06:25:40;101644.50;;;10.16;100.00
47670;BME280;33408;52.062;11.722;2023-05-24T06:28:08;101638.41;;;10.14;100.00
47670;BME280;33408;52.062;11.722;2023-05-24T06:30:34;101653.94;;;10.31;100.00
47670;BME280;33408;52.062;11.722;2023-05-24T06:33:01;101647.03;;;10.23;100.00
47670;BME280;33408;52.062;11.722;2023-05-24T06:35:29;101648.78;;;10.04;100.00
47670;BME280;33408;52.062;11.722;2023-05-24T06:37:56;101646.19;;;10.21;100.00
47670;BME280;33408;52.062;11.722;2023-05-24T06:40:23;101655.75;;;9.90;100.00
47670;BME280;33408;52.062;11.722;2023-05-24T06:42:49;101650.53;;;10.13;100.00
47670;BME280;33408;52.062;11.722;2023-05-24T06:45:16;101658.28;;;10.18;100.00
47670;BME280;33408;52.062;11.722;2023-05-24T06:47:43;101656.53;;;10.23;100.00
47670;BME280;33408;52.062;11.722;2023-05-24T06:50:09;101662.63;;;10.07;100.00
47670;BME280;33408;52.062;11.722;2023-05-24T06:52:37;101662.59;;;10.17;100.00
47670;BME280;33408;52.062;11.722;2023-05-24T06:55:04;101665.16;;;10.27;100.00
47670;BME280;33408;52.062;11.722;2023-05-24T06:57:31;101672.13;;;10.35;100.00
47670;BME280;33408;52.062;11.722;2023-05-24T06:59:58;101675.56;;;10.34;100.00
47670;BME280;33408;52.062;11.722;2023-05-24T07:02:24;101673.78;;;10.47;100.00
47670;BME280;33408;52.062;11.722;2023-05-24T07:04:52;101685.06;;;10.20;100.00
47670;BME280;33408;52.062;11.722;2023-05-24T07:07:19;101685.91;;;10.39;100.00
47670;BME280;33408;52.062;11.722;2023-05-24T07:09:47;101679.88;;;10.26;100.00
47670;BME280;33408;52.062;11.722;2023-05-24T07:12:14;101683.31;;;10.20;100.00
47670;BME280;33408;52.062;11.722;2023-05-24T07:14:40;101684.19;;;10.36;100.00
47670;BME280;33408;52.062;11.722;2023-05-24T07:17:07;101687.66;;;10.17;100.00
47670;BME280;33408;52.062;11.722;2023-05-24T07:19:34;101690.25;;;10.18;100.00
47670;BME280;33408;52.062;11.722;2023-05-24T07:22:00;101685.91;;;10.39;100.00
47670;BME280;33408;52.062;11.722;2023-05-24T07:24:27;101686.78;;;10.27;100.00
47670;BME280;33408;52.062;11.722;2023-05-24T07:26:55;101683.31;;;10.40;100.00
47670;BME280;33408;52.062;11.722;2023-05-24T07:29:22;101694.53;;;10.46;100.00
47670;BME280;33408;52.062;11.722;2023-05-24T07:31:48;101697.13;;;10.41;100.00
47670;BME280;33408;52.062;11.722;2023-05-24T07:34:15;101694.56;;;10.33;100.00
47670;BME280;33408;52.062;11.722;2023-05-24T07:36:42;101698.84;;;10.20;100.00
47670;BME280;33408;52.062;11.722;2023-05-24T07:39:09;101700.59;;;10.29;100.00
47670;BME280;33408;52.062;11.722;2023-05-24T07:41:40;101688.50;;;10.27;100.00
47670;BME280;33408;52.062;11.722;2023-05-24T07:44:08;101697.13;;;10.32;100.00
47670;BME280;33408;52.062;11.722;2023-05-24T07:46:34;101696.28;;;10.25;100.00
47670;BME280;33408;52.062;11.722;2023-05-24T07:49:01;101696.28;;;10.47;100.00
47670;BME280;33408;52.062;11.722;2023-05-24T07:51:27;101699.72;;;10.43;100.00
47670;BME280;33408;52.062;11.722;2023-05-24T07:53:54;101700.56;;;10.48;100.00
47670;BME280;33408;52.062;11.722;2023-05-24T07:56:21;101710.97;;;10.25;100.00
47670;BME280;33408;52.062;11.722;2023-05-24T07:58:48;101711.81;;;10.22;100.00
47670;BME280;33408;52.062;11.722;2023-05-24T08:01:17;101714.44;;;10.45;100.00
47670;BME280;33408;52.062;11.722;2023-05-24T08:03:44;101712.69;;;10.38;100.00
47670;BME280;33408;52.062;11.722;2023-05-24T08:06:11;101713.56;;;10.31;100.00
47670;BME280;33408;52.062;11.722;2023-05-24T08:08:38;101712.69;;;10.41;100.00
47670;BME280;33408;52.062;11.722;2023-05-24T08:11:06;101712.69;;;10.41;100.00
47670;BME280;33408;52.062;11.722;2023-05-24T08:13:33;101709.22;;;10.48;100.00
47670;BME280;33408;52.062;11.722;2023-05-24T08:15:59;101706.63;;;10.48;100.00
47670;BME280;33408;52.062;11.722;2023-05-24T08:18:27;101710.06;;;10.53;100.00
47670;BME280;33408;52.062;11.722;2023-05-24T08:20:54;101711.72;;;10.79;100.00
47670;BME280;33408;52.062;11.722;2023-05-24T08:23:21;101723.72;;;11.06;100.00
47670;BME280;33408;52.062;11.722;2023-05-24T08:25:47;101722.91;;;11.00;100.00
47670;BME280;33408;52.062;11.722;2023-05-24T08:28:14;101721.13;;;11.05;100.00
47670;BME280;33408;52.062;11.722;2023-05-24T08:30:41;101715.16;;;10.90;100.00
47670;BME280;33408;52.062;11.722;2023-05-24T08:33:07;101722.94;;;10.87;100.00
47670;BME280;33408;52.062;11.722;2023-05-24T08:35:35;101726.41;;;10.83;100.00
47670;BME280;33408;52.062;11.722;2023-05-24T08:38:02;101730.72;;;10.83;100.00
47670;BME280;33408;52.062;11.722;2023-05-24T08:40:29;101735.91;;;10.90;100.00
47670;BME280;33408;52.062;11.722;2023-05-24T08:42:59;101732.38;;;11.04;100.00
47670;BME280;33408;52.062;11.722;2023-05-24T08:45:28;101738.53;;;10.80;100.00
47670;BME280;33408;52.062;11.722;2023-05-24T08:47:56;101741.13;;;10.78;100.00
47670;BME280;33408;52.062;11.722;2023-05-24T08:50:23;101748.78;;;11.06;100.00
47670;BME280;33408;52.062;11.722;2023-05-24T08:52:51;101752.09;;;11.46;100.00
47670;BME280;33408;52.062;11.722;2023-05-24T08:55:20;101759.06;;;11.34;100.00
47670;BME280;33408;52.062;11.722;2023-05-24T08:57:47;101754.78;;;11.22;100.00
47670;BME280;33408;52.062;11.722;2023-05-24T09:00:14;101758.88;;;11.67;100.00
47670;BME280;33408;52.062;11.722;2023-05-24T09:02:44;101753.53;;;11.92;100.00
47670;BME280;33408;52.062;11.722;2023-05-24T09:05:12;101758.09;;;11.50;100.00
47670;BME280;33408;52.062;11.722;2023-05-24T09:07:42;101752.81;;;11.64;100.00
47670;BME280;33408;52.062;11.722;2023-05-24T09:10:11;101750.59;;;12.32;100.00
47670;BME280;33408;52.062;11.722;2023-05-24T09:12:38;101749.59;;;12.46;100.00
47670;BME280;33408;52.062;11.722;2023-05-24T09:15:07;101760.28;;;12.15;100.00
47670;BME280;33408;52.062;11.722;2023-05-24T09:17:34;101760.28;;;12.12;100.00
47670;BME280;33408;52.062;11.722;2023-05-24T09:20:01;101767.50;;;11.70;100.00
47670;BME280;33408;52.062;11.722;2023-05-24T09:22:31;101761.28;;;11.97;100.00
47670;BME280;33408;52.062;11.722;2023-05-24T09:24:59;101757.75;;;12.04;100.00
47670;BME280;33408;52.062;11.722;2023-05-24T09:27:27;101762.88;;;12.15;100.00
47670;BME280;33408;52.062;11.722;2023-05-24T09:29:57;101755.56;;;12.55;100.00
47670;BME280;33408;52.062;11.722;2023-05-24T09:32:23;101760.34;;;12.06;100.00
47670;BME280;33408;52.062;11.722;2023-05-24T09:34:51;101754.94;;;12.33;100.00
47670;BME280;33408;52.062;11.722;2023-05-24T09:37:20;101754.47;;;12.76;100.00
47670;BME280;33408;52.062;11.722;2023-05-24T09:39:48;101745.25;;;12.46;100.00
47670;BME280;33408;52.062;11.722;2023-05-24T09:42:16;101747.91;;;12.42;100.00
47670;BME280;33408;52.062;11.722;2023-05-24T09:44:46;101749.97;;;12.91;100.00
47670;BME280;33408;52.062;11.722;2023-05-24T09:47:13;101751.16;;;12.62;100.00
47670;BME280;33408;52.062;11.722;2023-05-24T09:49:40;101755.09;;;12.13;100.00
47670;BME280;33408;52.062;11.722;2023-05-24T09:52:07;101754.56;;;12.70;100.00
47670;BME280;33408;52.062;11.722;2023-05-24T09:54:34;101751.00;;;12.77;100.00
47670;BME280;33408;52.062;11.722;2023-05-24T09:57:01;101745.75;;;12.81;100.00
47670;BME280;33408;52.062;11.722;2023-05-24T09:59:31;101742.16;;;12.89;100.00
47670;BME280;33408;52.062;11.722;2023-05-24T10:02:07;101746.91;;;12.55;100.00
47670;BME280;33408;52.062;11.722;2023-05-24T10:04:36;101747.50;;;12.82;100.00
47670;BME280;33408;52.062;11.722;2023-05-24T10:07:03;101745.75;;;12.82;100.00
47670;BME280;33408;52.062;11.722;2023-05-24T10:09:30;101752.09;;;13.28;100.00
47670;BME280;33408;52.062;11.722;2023-05-24T10:12:00;101742.69;;;13.18;100.00
47670;BME280;33408;52.062;11.722;2023-05-24T10:14:30;101745.41;;;12.29;100.00
47670;BME280;33408;52.062;11.722;2023-05-24T10:16:57;101740.13;;;12.40;100.00
47670;BME280;33408;52.062;11.722;2023-05-24T10:19:25;101750.44;;;13.24;100.00
47670;BME280;33408;52.062;11.722;2023-05-24T10:21:52;101750.44;;;13.24;100.00
47670;BME280;33408;52.062;11.722;2023-05-24T10:24:23;101746.28;;;13.09;100.00
47670;BME280;33408;52.062;11.722;2023-05-24T10:26:51;101752.78;;;14.01;100.00
47670;BME280;33408;52.062;11.722;2023-05-24T10:29:28;101745.94;;;15.35;100.00
47670;BME280;33408;52.062;11.722;2023-05-24T10:31:58;101743.97;;;15.04;100.00
47670;BME280;33408;52.062;11.722;2023-05-24T10:34:27;101744.88;;;15.42;100.00
47670;BME280;33408;52.062;11.722;2023-05-24T10:36:55;101739.03;;;15.30;100.00
47670;BME280;33408;52.062;11.722;2023-05-24T10:39:24;101744.03;;;15.80;100.00
47670;BME280;33408;52.062;11.722;2023-05-24T10:41:50;101734.50;;;15.39;100.00
47670;BME280;33408;52.062;11.722;2023-05-24T10:44:17;101731.31;;;14.84;100.00
47670;BME280;33408;52.062;11.722;2023-05-24T10:47:14;101740.03;;;14.36;100.00
47670;BME280;33408;52.062;11.722;2023-05-24T10:49:50;101742.34;;;14.53;100.00
47670;BME280;33408;52.062;11.722;2023-05-24T10:52:17;101742.16;;;14.14;100.00
47670;BME280;33408;52.062;11.722;2023-05-24T10:55:04;101743.84;;;13.62;100.00
47670;BME280;33408;52.062;11.722;2023-05-24T10:57:32;101747.50;;;14.06;100.00
47670;BME280;33408;52.062;11.722;2023-05-24T11:00:26;101747.63;;;14.48;100.00
47670;BME280;33408;52.062;11.722;2023-05-24T11:02:58;101743.19;;;14.53;100.00
47670;BME280;33408;52.062;11.722;2023-05-24T11:05:33;101756.41;;;14.92;100.00
47670;BME280;33408;52.062;11.722;2023-05-24T11:08:00;101752.25;;;14.81;100.00
47670;BME280;33408;52.062;11.722;2023-05-24T11:10:31;101754.25;;;14.68;100.00
47670;BME280;33408;52.062;11.722;2023-05-24T11:12:59;101760.06;;;14.34;100.00
47670;BME280;33408;52.062;11.722;2023-05-24T11:15:26;101756.06;;;15.08;100.00
47670;BME280;33408;52.062;11.722;2023-05-24T11:18:12;101753.88;;;15.67;98.53
47670;BME280;33408;52.062;11.722;2023-05-24T11:20:42;101755.72;;;15.64;94.60
47670;BME280;33408;52.062;11.722;2023-05-24T11:23:09;101750.88;;;16.20;93.35
47670;BME280;33408;52.062;11.722;2023-05-24T11:25:36;101746.56;;;16.84;89.63
47670;BME280;33408;52.062;11.722;2023-05-24T11:28:06;101746.19;;;16.00;90.13
47670;BME280;33408;52.062;11.722;2023-05-24T11:30:38;101738.22;;;15.66;89.75
47670;BME280;33408;52.062;11.722;2023-05-24T11:33:04;101736.81;;;15.90;89.17
47670;BME280;33408;52.062;11.722;2023-05-24T11:35:31;101742.88;;;15.53;92.13
47670;BME280;33408;52.062;11.722;2023-05-24T11:37:59;101734.38;;;15.45;91.15
47670;BME280;33408;52.062;11.722;2023-05-24T11:40:26;101738.66;;;15.49;91.60
47670;BME280;33408;52.062;11.722;2023-05-24T11:42:53;101736.78;;;15.15;92.72
47670;BME280;33408;52.062;11.722;2023-05-24T11:45:20;101738.88;;;14.98;96.24
47670;BME280;33408;52.062;11.722;2023-05-24T11:47:47;101752.81;;;14.50;100.00
47670;BME280;33408;52.062;11.722;2023-05-24T11:50:14;101759.50;;;14.16;100.00
47670;BME280;33408;52.062;11.722;2023-05-24T11:52:41;101759.72;;;14.04;100.00
47670;BME280;33408;52.062;11.722;2023-05-24T11:55:11;101765.75;;;14.06;100.00
47670;BME280;33408;52.062;11.722;2023-05-24T11:57:43;101757.66;;;14.21;100.00
47670;BME280;33408;52.062;11.722;2023-05-24T12:00:13;101757.97;;;13.47;100.00
47670;BME280;33408;52.062;11.722;2023-05-24T12:02:41;101756.69;;;13.74;100.00
47670;BME280;33408;52.062;11.722;2023-05-24T12:05:09;101756.00;;;13.63;100.00
47670;BME280;33408;52.062;11.722;2023-05-24T12:07:38;101755.63;;;14.86;100.00
47670;BME280;33408;52.062;11.722;2023-05-24T12:10:06;101748.00;;;14.76;100.00
47670;BME280;33408;52.062;11.722;2023-05-24T12:12:35;101749.16;;;14.62;100.00
47670;BME280;33408;52.062;11.722;2023-05-24T12:15:01;101748.59;;;14.91;100.00
47670;BME280;33408;52.062;11.722;2023-05-24T12:17:29;101742.69;;;14.33;100.00
47670;BME280;33408;52.062;11.722;2023-05-24T12:19:56;101744.59;;;14.71;100.00
47670;BME280;33408;52.062;11.722;2023-05-24T12:22:26;101739.84;;;14.92;100.00
47670;BME280;33408;52.062;11.722;2023-05-24T12:24:55;101748.03;;;15.17;96.75
47670;BME280;33408;52.062;11.722;2023-05-24T12:27:25;101740.63;;;14.97;100.00
47670;BME280;33408;52.062;11.722;2023-05-24T12:29:54;101745.88;;;15.38;100.00
47670;BME280;33408;52.062;11.722;2023-05-24T12:32:20;101755.25;;;15.46;100.00
47670;BME280;33408;52.062;11.722;2023-05-24T12:34:48;101747.00;;;14.84;96.26
47670;BME280;33408;52.062;11.722;2023-05-24T12:37:16;101743.25;;;15.75;94.22
47670;BME280;33408;52.062;11.722;2023-05-24T12:39:42;101742.97;;;15.50;95.24